Egan, Illinois
Current Conditions -  °F | °C
As of 1:35 PM on Friday 31 Oct 2014 (Local Time) from KFEP Reporting Station
Overcast Overcast  
Wind Chill: 28°   Ceiling: 4200
Heat Index: 37°   Visibility: 10mi
Dew Point: 20°   Wind: 16mph
Humidity: 49%   Direction: 360°N
Pressure: 30.33"   Gusts: 30mph
Location:  42.1509°N, 89.4005°W
Report Text: KFEP 311835Z AUTO 36014G26KT 10SM BKN042 OVC048 03/M07 A3033 RMK AO2 T00291068
Loading
Personal Weather Stations






























Interactive Weather Map
Tropical Storm Tracking
New forecast layout! Learn more

10-Day Weather Forecast

Advertisements
Track Severe Weather on mobile